createdAt,value
2023-04-20T00:00:38.238Z,24.79
2023-04-20T00:01:38.251Z,24.77
2023-04-20T00:02:38.444Z,24.76
2023-04-20T00:03:38.521Z,24.78
2023-04-20T00:04:38.383Z,24.76
2023-04-20T00:05:38.350Z,24.74
2023-04-20T00:06:38.404Z,24.71
2023-04-20T00:07:38.422Z,24.76
2023-04-20T00:08:38.434Z,24.74
2023-04-20T00:09:38.482Z,24.70
2023-04-20T00:10:38.544Z,24.72
2023-04-20T00:11:38.553Z,24.69
2023-04-20T00:12:38.565Z,24.71
2023-04-20T00:13:38.579Z,24.72
2023-04-20T00:14:38.622Z,24.69
2023-04-20T00:15:38.644Z,24.74
2023-04-20T00:16:38.693Z,24.69
2023-04-20T00:17:38.791Z,24.66
2023-04-20T00:18:38.729Z,24.65
2023-04-20T00:19:38.749Z,24.66
2023-04-20T00:20:38.798Z,24.67
2023-04-20T00:21:38.835Z,24.65
2023-04-20T00:22:38.875Z,24.64
2023-04-20T00:23:38.880Z,24.62
2023-04-20T00:24:38.916Z,24.62
2023-04-20T00:25:38.957Z,24.59
2023-04-20T00:26:38.973Z,24.61
2023-04-20T00:27:39.031Z,24.64
2023-04-20T00:28:39.037Z,24.60
2023-04-20T00:29:39.085Z,24.60
2023-04-20T00:30:39.154Z,24.62
2023-04-20T00:31:39.164Z,24.58
2023-04-20T00:32:39.201Z,24.60
2023-04-20T00:33:39.186Z,24.60
2023-04-20T00:34:39.231Z,24.54
2023-04-20T00:35:39.280Z,24.57
2023-04-20T00:36:39.297Z,24.58
2023-04-20T00:37:39.332Z,24.53
2023-04-20T00:38:39.361Z,24.57
2023-04-20T00:39:39.377Z,24.60
2023-04-20T00:40:39.420Z,24.57
2023-04-20T00:41:39.439Z,24.59
2023-04-20T00:42:39.494Z,24.62
2023-04-20T00:43:39.486Z,24.58
2023-04-20T00:44:39.524Z,24.62
2023-04-20T00:45:39.580Z,24.54
2023-04-20T00:46:39.636Z,24.63
2023-04-20T00:47:39.672Z,24.53
2023-04-20T00:48:39.663Z,24.54
2023-04-20T00:49:39.685Z,24.48
2023-04-20T00:50:39.732Z,24.58
2023-04-20T00:51:39.769Z,24.57
2023-04-20T00:52:39.791Z,24.53
2023-04-20T00:53:39.820Z,24.56
2023-04-20T00:54:39.825Z,24.58
2023-04-20T00:55:39.884Z,24.55
2023-04-20T00:56:39.904Z,24.55
2023-04-20T00:57:39.932Z,24.56
2023-04-20T00:58:39.957Z,24.54
2023-04-20T00:59:39.979Z,24.52
2023-04-20T01:00:40.020Z,24.51
2023-04-20T01:01:40.084Z,24.56
2023-04-20T01:02:40.122Z,24.54
2023-04-20T01:03:40.357Z,24.52
2023-04-20T01:04:40.245Z,24.55
2023-04-20T01:05:40.191Z,24.54
2023-04-20T01:06:40.186Z,24.50
2023-04-20T01:07:40.228Z,24.54
2023-04-20T01:08:40.269Z,24.52
2023-04-20T01:09:40.276Z,24.54
2023-04-20T01:10:40.307Z,24.51
2023-04-20T01:11:40.346Z,24.52
2023-04-20T01:12:40.365Z,24.54
2023-04-20T01:13:40.408Z,24.53
2023-04-20T01:14:40.442Z,24.51
2023-04-20T01:15:40.475Z,24.51
2023-04-20T01:16:40.501Z,24.50
2023-04-20T01:17:40.549Z,24.50
2023-04-20T01:18:40.538Z,24.48
2023-04-20T01:19:40.619Z,24.52
2023-04-20T01:20:40.628Z,24.52
2023-04-20T01:21:40.629Z,24.50
2023-04-20T01:22:40.678Z,24.50
2023-04-20T01:23:40.701Z,24.50
2023-04-20T01:24:40.733Z,24.54
2023-04-20T01:25:40.759Z,24.54
2023-04-20T01:26:40.795Z,24.50
2023-04-20T01:27:40.815Z,24.52
2023-04-20T01:28:40.855Z,24.51
2023-04-20T01:29:40.868Z,24.50
2023-04-20T01:30:40.913Z,24.51
2023-04-20T01:31:40.951Z,24.50
2023-04-20T01:32:41.058Z,24.51
2023-04-20T01:33:40.993Z,24.50
2023-04-20T01:34:41.036Z,24.52
2023-04-20T01:35:41.033Z,24.51
2023-04-20T01:36:41.083Z,24.50
2023-04-20T01:37:41.117Z,24.51
2023-04-20T01:38:41.148Z,24.52
2023-04-20T01:39:41.247Z,24.51
2023-04-20T01:40:41.197Z,24.52
2023-04-20T01:41:41.217Z,24.49
2023-04-20T01:42:41.276Z,24.52
2023-04-20T01:43:41.288Z,24.52
2023-04-20T01:44:41.343Z,24.51
2023-04-20T01:45:41.334Z,24.55
2023-04-20T01:46:41.506Z,24.50
2023-04-20T01:47:41.468Z,24.54
2023-04-20T01:48:41.456Z,24.52
2023-04-20T01:49:41.481Z,24.54
2023-04-20T01:50:41.512Z,24.51
2023-04-20T01:51:41.543Z,24.53
2023-04-20T01:52:41.562Z,24.52
2023-04-20T01:53:41.597Z,24.52
2023-04-20T01:54:41.620Z,24.52
2023-04-20T01:55:41.654Z,24.50
2023-04-20T01:56:41.664Z,24.51
2023-04-20T01:57:41.716Z,24.51
2023-04-20T01:58:41.757Z,24.55
2023-04-20T01:59:41.783Z,24.52
2023-04-20T02:00:41.817Z,24.54
2023-04-20T02:01:41.833Z,24.49
2023-04-20T02:02:42.042Z,24.51
2023-04-20T02:03:42.107Z,24.51
2023-04-20T02:04:41.936Z,24.52
2023-04-20T02:05:41.999Z,24.52
2023-04-20T02:06:42.018Z,24.50
2023-04-20T02:07:42.040Z,24.48
2023-04-20T02:08:42.080Z,24.51
2023-04-20T02:09:42.098Z,24.50
2023-04-20T02:10:42.128Z,24.52
2023-04-20T02:11:42.181Z,24.48
2023-04-20T02:12:42.207Z,24.50
2023-04-20T02:13:42.229Z,24.49
2023-04-20T02:14:42.313Z,24.48
2023-04-20T02:15:42.291Z,24.50
2023-04-20T02:16:42.351Z,24.48
2023-04-20T02:17:42.368Z,24.49
2023-04-20T02:18:42.361Z,24.49
2023-04-20T02:19:42.419Z,24.47
2023-04-20T02:20:42.441Z,24.47
2023-04-20T02:21:42.465Z,24.47
2023-04-20T02:22:42.500Z,24.50
2023-04-20T02:23:42.520Z,24.49
2023-04-20T02:24:42.551Z,24.49
2023-04-20T02:25:42.592Z,24.47
2023-04-20T02:26:42.609Z,24.47
2023-04-20T02:27:42.653Z,24.47
2023-04-20T02:28:42.662Z,24.48
2023-04-20T02:29:42.710Z,24.46
2023-04-20T02:30:42.732Z,24.49
2023-04-20T02:31:42.784Z,24.45
2023-04-20T02:32:42.820Z,24.49
2023-04-20T02:33:42.814Z,24.47
2023-04-20T02:34:42.847Z,24.45
2023-04-20T02:35:42.866Z,24.47
2023-04-20T02:36:42.926Z,24.43
2023-04-20T02:37:42.928Z,24.47
2023-04-20T02:38:42.985Z,24.48
2023-04-20T02:39:42.988Z,24.48
2023-04-20T02:40:43.036Z,24.46
2023-04-20T02:41:43.092Z,24.44
2023-04-20T02:42:43.096Z,24.42
2023-04-20T02:43:43.114Z,24.43
2023-04-20T02:44:43.134Z,24.44
2023-04-20T02:45:43.189Z,24.45
2023-04-20T02:46:43.267Z,24.40
2023-04-20T02:47:43.263Z,24.42
2023-04-20T02:48:43.289Z,24.42
2023-04-20T02:49:43.298Z,24.40
2023-04-20T02:50:43.356Z,24.41
2023-04-20T02:51:43.380Z,24.39
2023-04-20T02:52:43.432Z,24.38
2023-04-20T02:53:43.493Z,24.42
2023-04-20T02:54:43.491Z,24.41
2023-04-20T02:55:43.524Z,24.40
2023-04-20T02:56:43.547Z,24.39
2023-04-20T02:57:43.584Z,24.38
2023-04-20T02:58:43.617Z,24.40
2023-04-20T02:59:43.650Z,24.38
2023-04-20T03:00:43.663Z,24.38
2023-04-20T03:01:43.746Z,24.38
2023-04-20T03:02:43.816Z,24.37
2023-04-20T03:03:43.886Z,24.36
2023-04-20T03:04:43.886Z,24.37
2023-04-20T03:05:43.851Z,24.35
2023-04-20T03:06:43.858Z,24.34
2023-04-20T03:07:43.907Z,24.37
2023-04-20T03:08:43.947Z,24.34
2023-04-20T03:09:43.993Z,24.35
2023-04-20T03:10:44.001Z,24.34
2023-04-20T03:11:44.067Z,24.32
2023-04-20T03:12:44.091Z,24.31
2023-04-20T03:13:44.119Z,24.33
2023-04-20T03:14:44.145Z,24.30
2023-04-20T03:15:44.196Z,24.30
2023-04-20T03:16:44.311Z,24.33
2023-04-20T03:17:44.293Z,24.31
2023-04-20T03:18:44.299Z,24.30
2023-04-20T03:19:44.310Z,24.31
2023-04-20T03:20:44.357Z,24.30
2023-04-20T03:21:44.401Z,24.28
2023-04-20T03:22:44.421Z,24.28
2023-04-20T03:23:44.453Z,24.27
2023-04-20T03:24:44.507Z,24.27
2023-04-20T03:25:44.533Z,24.26
2023-04-20T03:26:44.549Z,24.26
2023-04-20T03:27:44.598Z,24.27
2023-04-20T03:28:44.642Z,24.25
2023-04-20T03:29:44.665Z,24.28
2023-04-20T03:30:44.703Z,24.28
2023-04-20T03:31:44.723Z,24.26
2023-04-20T03:32:44.789Z,24.26
2023-04-20T03:33:44.808Z,24.22
2023-04-20T03:34:44.857Z,24.21
2023-04-20T03:35:44.873Z,24.21
2023-04-20T03:36:44.895Z,24.20
2023-04-20T03:37:44.922Z,24.19
2023-04-20T03:38:44.962Z,24.19
2023-04-20T03:39:44.985Z,24.19
2023-04-20T03:40:45.024Z,24.18
2023-04-20T03:41:45.030Z,24.18
2023-04-20T03:42:45.087Z,24.16
2023-04-20T03:43:45.104Z,24.20
2023-04-20T03:44:45.140Z,24.16
2023-04-20T03:45:45.218Z,24.19
2023-04-20T03:46:45.222Z,24.17
2023-04-20T03:47:45.313Z,24.15
2023-04-20T03:48:45.270Z,24.14
2023-04-20T03:49:45.308Z,24.16
2023-04-20T03:50:45.317Z,24.12
2023-04-20T03:51:45.362Z,24.13
2023-04-20T03:52:45.422Z,24.12
2023-04-20T03:53:45.417Z,24.13
2023-04-20T03:54:45.457Z,24.11
2023-04-20T03:55:45.491Z,24.12
2023-04-20T03:56:45.517Z,24.10
2023-04-20T03:57:45.569Z,24.12
2023-04-20T03:58:45.599Z,24.07
2023-04-20T03:59:45.632Z,24.08
2023-04-20T04:00:45.656Z,24.08
2023-04-20T04:01:45.666Z,24.08
2023-04-20T04:02:45.840Z,24.07
2023-04-20T04:03:45.890Z,24.10
2023-04-20T04:04:45.869Z,24.07
2023-04-20T04:05:45.800Z,24.04
2023-04-20T04:06:45.837Z,24.08
2023-04-20T04:07:45.873Z,24.08
2023-04-20T04:08:45.894Z,24.05
2023-04-20T04:09:45.945Z,24.07
2023-04-20T04:10:46.006Z,24.03
2023-04-20T04:11:46.014Z,24.05
2023-04-20T04:12:46.027Z,24.02
2023-04-20T04:13:46.090Z,24.00
2023-04-20T04:14:46.118Z,24.04
2023-04-20T04:15:46.141Z,24.00
2023-04-20T04:16:46.249Z,24.03
2023-04-20T04:17:46.292Z,23.98
2023-04-20T04:18:46.255Z,24.02
2023-04-20T04:19:46.285Z,24.03
2023-04-20T04:20:46.326Z,24.02
2023-04-20T04:21:46.375Z,24.01
2023-04-20T04:22:46.391Z,24.00
2023-04-20T04:23:46.435Z,24.00
2023-04-20T04:24:46.471Z,24.02
2023-04-20T04:25:46.525Z,24.00
2023-04-20T04:26:46.537Z,23.98
2023-04-20T04:27:46.582Z,24.01
2023-04-20T04:28:46.611Z,23.97
2023-04-20T04:29:46.621Z,23.99
2023-04-20T04:30:46.684Z,23.97
2023-04-20T04:31:46.764Z,23.98
2023-04-20T04:32:46.945Z,23.97
2023-04-20T04:33:46.906Z,23.94
2023-04-20T04:34:46.819Z,23.95
2023-04-20T04:35:46.877Z,23.99
2023-04-20T04:36:46.981Z,23.95
2023-04-20T04:37:46.919Z,23.96
2023-04-20T04:38:46.987Z,23.98
2023-04-20T04:39:46.978Z,23.95
2023-04-20T04:40:47.040Z,23.97
2023-04-20T04:41:47.079Z,23.97
2023-04-20T04:42:47.078Z,23.98
2023-04-20T04:43:47.121Z,23.94
2023-04-20T04:44:47.220Z,23.97
2023-04-20T04:45:47.212Z,23.92
2023-04-20T04:46:47.330Z,23.97
2023-04-20T04:47:47.299Z,23.93
2023-04-20T04:48:47.268Z,23.96
2023-04-20T04:49:48.919Z,23.94
2023-04-20T04:50:47.384Z,23.95
2023-04-20T04:51:47.379Z,23.96
2023-04-20T04:52:47.453Z,23.95
2023-04-20T04:53:47.472Z,23.94
2023-04-20T04:54:47.566Z,23.96
2023-04-20T04:55:47.497Z,23.92
2023-04-20T04:56:47.547Z,23.93
2023-04-20T04:57:47.592Z,23.94
2023-04-20T04:58:47.670Z,23.91
2023-04-20T04:59:47.664Z,23.91
2023-04-20T05:00:47.696Z,23.93
2023-04-20T05:01:47.755Z,23.91
2023-04-20T05:02:47.839Z,23.91
2023-04-20T05:03:47.948Z,23.90
2023-04-20T05:04:47.932Z,23.89
2023-04-20T05:05:47.861Z,23.92
2023-04-20T05:06:47.917Z,23.90
2023-04-20T05:07:47.943Z,23.89
2023-04-20T05:08:47.975Z,23.89
2023-04-20T05:09:48.012Z,23.94
2023-04-20T05:10:48.056Z,23.92
2023-04-20T05:11:48.081Z,23.90
2023-04-20T05:12:48.110Z,23.89
2023-04-20T05:13:48.164Z,23.90
2023-04-20T05:14:48.206Z,23.90
2023-04-20T05:15:48.244Z,23.87
2023-04-20T05:16:48.265Z,23.89
2023-04-20T05:17:48.298Z,23.88
2023-04-20T05:18:48.448Z,23.85
2023-04-20T05:19:48.398Z,23.86
2023-04-20T05:20:48.431Z,23.87
2023-04-20T05:21:48.474Z,24.03
2023-04-20T05:22:48.481Z,23.92
2023-04-20T05:23:48.907Z,23.92
2023-04-20T05:24:48.541Z,23.99
2023-04-20T05:25:48.577Z,23.91
2023-04-20T05:26:48.609Z,23.98
2023-04-20T05:27:48.650Z,23.91
2023-04-20T05:28:48.666Z,23.92
2023-04-20T05:29:48.759Z,23.88
2023-04-20T05:30:48.729Z,23.94
2023-04-20T05:31:48.785Z,24.05
2023-04-20T05:32:51.451Z,24.27
2023-04-20T05:33:48.782Z,24.16
2023-04-20T05:34:48.764Z,24.25
2023-04-20T05:35:48.738Z,24.30
2023-04-20T05:36:48.746Z,24.28
2023-04-20T05:37:48.750Z,24.56
2023-04-20T05:38:48.810Z,24.92
2023-04-20T05:39:48.748Z,24.87
2023-04-20T05:40:50.356Z,24.77
2023-04-20T05:41:48.743Z,24.72
2023-04-20T05:42:48.719Z,24.79
2023-04-20T05:43:48.693Z,24.96
2023-04-20T05:44:48.697Z,25.03
2023-04-20T05:45:48.735Z,25.05
2023-04-20T05:46:48.696Z,25.03
2023-04-20T05:47:48.717Z,25.07
2023-04-20T05:48:48.673Z,25.15
2023-04-20T05:49:48.650Z,25.23
2023-04-20T05:50:48.684Z,25.35
2023-04-20T05:51:48.674Z,25.43
2023-04-20T05:52:48.630Z,25.52
2023-04-20T05:53:48.951Z,25.54
2023-04-20T05:54:48.630Z,25.62
2023-04-20T05:55:48.628Z,25.62
2023-04-20T05:56:48.609Z,25.68
2023-04-20T05:57:48.647Z,25.78
2023-04-20T05:58:48.614Z,25.80
2023-04-20T05:59:48.602Z,25.82
2023-04-20T06:00:48.610Z,25.81
2023-04-20T06:01:48.566Z,25.86
2023-04-20T06:02:48.698Z,25.90
2023-04-20T06:03:48.780Z,25.91
2023-04-20T06:04:48.907Z,25.91
2023-04-20T06:05:48.742Z,26.01
2023-04-20T06:06:48.810Z,26.00
2023-04-20T06:07:48.879Z,26.03
2023-04-20T06:08:48.921Z,26.04
2023-04-20T06:09:48.974Z,26.03
2023-04-20T06:10:49.033Z,26.03
2023-04-20T06:11:49.106Z,26.10
2023-04-20T06:12:49.183Z,26.10
2023-04-20T06:13:49.258Z,26.10
2023-04-20T06:14:49.318Z,26.05
2023-04-20T06:15:49.376Z,26.09
2023-04-20T06:16:49.412Z,26.10
2023-04-20T06:17:49.556Z,26.07
2023-04-20T06:18:49.514Z,26.14
2023-04-20T06:19:49.557Z,26.15
2023-04-20T06:20:49.605Z,26.12
2023-04-20T06:21:49.681Z,26.18
2023-04-20T06:22:50.451Z,26.16
2023-04-20T06:23:49.946Z,26.12
2023-04-20T06:24:49.828Z,26.14
2023-04-20T06:25:49.904Z,26.19
2023-04-20T06:26:49.962Z,26.25
2023-04-20T06:27:52.046Z,26.21
2023-04-20T06:28:49.981Z,26.24
2023-04-20T06:29:49.971Z,26.39
2023-04-20T06:30:49.983Z,26.33
2023-04-20T06:31:50.254Z,26.61
2023-04-20T06:32:50.032Z,26.69
2023-04-20T06:33:50.458Z,26.62
2023-04-20T06:34:49.959Z,26.56
2023-04-20T06:35:49.963Z,26.54
2023-04-20T06:36:49.932Z,26.59
2023-04-20T06:37:49.933Z,26.61
2023-04-20T06:38:49.974Z,26.65
2023-04-20T06:39:49.902Z,26.65
2023-04-20T06:40:49.953Z,26.61
2023-04-20T06:41:49.975Z,26.71
2023-04-20T06:42:49.895Z,26.74
2023-04-20T06:43:49.877Z,26.75
2023-04-20T06:44:49.862Z,26.83
2023-04-20T06:45:49.870Z,26.93
2023-04-20T06:46:50.012Z,26.95
2023-04-20T06:47:49.895Z,27.02
2023-04-20T06:48:49.878Z,27.02
2023-04-20T06:49:49.838Z,27.01
2023-04-20T06:50:49.856Z,27.07
2023-04-20T06:51:49.838Z,27.12
2023-04-20T06:52:49.833Z,27.11
2023-04-20T06:53:49.822Z,27.15
2023-04-20T06:54:49.823Z,27.18
2023-04-20T06:55:49.806Z,27.20
2023-04-20T06:56:50.432Z,26.79
2023-04-20T06:57:49.788Z,25.36
2023-04-20T06:58:49.793Z,25.20
2023-04-20T06:59:49.766Z,25.07
2023-04-20T07:00:49.808Z,24.73
2023-04-20T07:01:49.793Z,24.50
2023-04-20T07:02:49.878Z,24.45
2023-04-20T07:03:49.989Z,24.38
2023-04-20T07:04:49.792Z,24.42
2023-04-20T07:05:49.747Z,24.48
2023-04-20T07:06:51.715Z,24.37
2023-04-20T07:07:49.727Z,24.36
2023-04-20T07:08:49.747Z,24.39
2023-04-20T07:09:49.806Z,24.34
2023-04-20T07:10:49.705Z,24.44
2023-04-20T07:11:49.722Z,24.96
2023-04-20T07:12:49.715Z,25.57
2023-04-20T07:13:49.685Z,25.51
2023-04-20T07:14:49.719Z,25.50
2023-04-20T07:15:49.688Z,25.67
2023-04-20T07:16:49.712Z,25.87
2023-04-20T07:17:49.690Z,26.01
2023-04-20T07:18:50.070Z,26.09
2023-04-20T07:19:49.692Z,26.21
2023-04-20T07:20:50.506Z,26.25
2023-04-20T07:21:50.477Z,26.38
2023-04-20T07:22:49.628Z,26.44
2023-04-20T07:23:49.980Z,26.58
2023-04-20T07:24:49.652Z,26.59
2023-04-20T07:25:49.710Z,26.73
2023-04-20T07:26:49.632Z,26.68
2023-04-20T07:27:49.625Z,26.59
2023-04-20T07:28:50.013Z,26.57
2023-04-20T07:29:49.592Z,26.42
2023-04-20T07:30:49.609Z,25.23
2023-04-20T07:31:49.644Z,25.04
2023-04-20T07:32:49.677Z,25.23
2023-04-20T07:33:49.983Z,25.39
2023-04-20T07:34:49.615Z,25.70
2023-04-20T07:35:51.478Z,25.69
2023-04-20T07:36:49.561Z,25.77
2023-04-20T07:37:49.536Z,25.78
2023-04-20T07:38:50.026Z,26.13
2023-04-20T07:39:49.503Z,26.24
2023-04-20T07:40:49.505Z,26.35
2023-04-20T07:41:49.528Z,26.39
2023-04-20T07:42:49.718Z,26.44
2023-04-20T07:43:50.017Z,26.52
2023-04-20T07:44:49.593Z,26.55
2023-04-20T07:45:49.648Z,26.58
2023-04-20T07:46:49.658Z,26.60
2023-04-20T07:47:49.825Z,26.49
2023-04-20T07:48:49.746Z,26.44
2023-04-20T07:49:49.731Z,26.49
2023-04-20T07:50:49.861Z,26.55
2023-04-20T07:51:49.789Z,26.53
2023-04-20T07:52:49.844Z,26.51
2023-04-20T07:53:49.996Z,26.51
2023-04-20T07:54:50.002Z,26.52
2023-04-20T07:55:51.083Z,26.48
2023-04-20T07:56:49.928Z,26.48
2023-04-20T07:57:49.952Z,26.44
2023-04-20T07:58:49.967Z,26.42
2023-04-20T07:59:49.959Z,26.40
2023-04-20T08:00:49.964Z,26.38
2023-04-20T08:01:50.190Z,26.31
2023-04-20T08:02:50.321Z,26.31
2023-04-20T08:03:50.206Z,26.29
2023-04-20T08:04:50.266Z,26.24
2023-04-20T08:05:50.086Z,26.18
2023-04-20T08:06:50.064Z,26.18
2023-04-20T08:07:50.094Z,26.15
2023-04-20T08:08:50.093Z,26.13
2023-04-20T08:09:50.097Z,26.12
2023-04-20T08:10:50.105Z,26.13
2023-04-20T08:11:50.080Z,26.14
2023-04-20T08:12:52.629Z,26.06
2023-04-20T08:13:50.107Z,26.05
2023-04-20T08:14:50.085Z,26.05
2023-04-20T08:15:50.133Z,26.08
2023-04-20T08:16:50.054Z,26.04
2023-04-20T08:17:50.198Z,26.04
2023-04-20T08:18:50.061Z,26.11
2023-04-20T08:19:50.022Z,26.02
2023-04-20T08:20:50.029Z,25.96
2023-04-20T08:21:50.051Z,25.94
2023-04-20T08:22:50.051Z,26.00
2023-04-20T08:23:50.499Z,26.02
2023-04-20T08:24:50.045Z,26.06
2023-04-20T08:25:50.025Z,26.12
2023-04-20T08:26:49.987Z,26.15
2023-04-20T08:27:49.986Z,26.27
2023-04-20T08:28:50.020Z,26.30
2023-04-20T08:29:49.977Z,26.30
2023-04-20T08:30:49.954Z,26.40
2023-04-20T08:31:51.532Z,26.40
2023-04-20T08:32:49.998Z,26.44
2023-04-20T08:33:49.967Z,26.48
2023-04-20T08:34:49.958Z,26.52
2023-04-20T08:35:49.935Z,26.26
2023-04-20T08:36:49.980Z,26.10
2023-04-20T08:37:49.912Z,26.07
2023-04-20T08:38:50.121Z,25.65
2023-04-20T08:39:49.908Z,25.06
2023-04-20T08:40:49.880Z,24.39
2023-04-20T08:41:49.883Z,24.31
2023-04-20T08:42:49.905Z,24.37
2023-04-20T08:43:49.942Z,24.58
2023-04-20T08:45:40.763Z,25.33
2023-04-20T08:46:40.767Z,25.65
2023-04-20T08:47:40.755Z,25.73
2023-04-20T08:48:40.751Z,25.82
2023-04-20T08:49:40.729Z,25.95
2023-04-20T08:50:40.752Z,26.02
2023-04-20T08:51:40.750Z,26.07
2023-04-20T08:52:40.729Z,26.13
2023-04-20T08:53:40.723Z,26.19
2023-04-20T08:54:55.200Z,26.22
2023-04-20T08:55:41.766Z,26.36
2023-04-20T08:56:40.703Z,26.52
2023-04-20T08:57:40.685Z,26.36
2023-04-20T08:58:40.674Z,26.45
2023-04-20T08:59:40.680Z,26.50
2023-04-20T09:00:40.696Z,26.50
2023-04-20T09:01:40.759Z,26.50
2023-04-20T09:02:40.707Z,26.46
2023-04-20T09:03:40.899Z,26.43
2023-04-20T09:04:41.054Z,26.37
2023-04-20T09:05:40.625Z,26.36
2023-04-20T09:06:40.614Z,26.35
2023-04-20T09:07:40.632Z,26.39
2023-04-20T09:08:40.656Z,26.38
2023-04-20T09:09:40.662Z,26.33
2023-04-20T09:10:40.834Z,26.36
2023-04-20T09:11:40.682Z,26.35
2023-04-20T09:12:40.677Z,26.37
2023-04-20T09:13:40.687Z,26.35
2023-04-20T09:14:40.710Z,26.33
2023-04-20T09:15:40.712Z,26.31
2023-04-20T09:16:40.737Z,26.36
2023-04-20T09:17:40.779Z,26.39
2023-04-20T09:18:40.748Z,26.38
2023-04-20T09:19:40.968Z,26.33
2023-04-20T09:20:40.713Z,26.28
2023-04-20T09:21:40.697Z,26.31
2023-04-20T09:22:40.709Z,26.26
2023-04-20T09:23:40.737Z,26.15
2023-04-20T09:24:40.715Z,26.41
2023-04-20T09:25:40.721Z,26.20
2023-04-20T09:26:40.754Z,26.02
2023-04-20T09:27:40.715Z,25.78
2023-04-20T09:28:40.720Z,25.79
2023-04-20T09:29:40.955Z,25.97
2023-04-20T09:30:40.750Z,25.80
2023-04-20T09:31:41.451Z,25.95
2023-04-20T09:32:40.806Z,26.14
2023-04-20T09:33:40.793Z,26.23
2023-04-20T09:34:40.820Z,26.36
2023-04-20T09:35:40.794Z,26.42
2023-04-20T09:36:40.819Z,26.53
2023-04-20T09:37:40.838Z,26.58
2023-04-20T09:38:40.852Z,26.57
2023-04-20T09:39:40.957Z,26.72
2023-04-20T09:40:40.889Z,26.76
2023-04-20T09:41:40.852Z,26.77
2023-04-20T09:42:40.830Z,26.80
2023-04-20T09:43:40.839Z,26.85
2023-04-20T09:44:40.918Z,26.87
2023-04-20T09:45:40.985Z,26.97
2023-04-20T09:46:40.852Z,26.99
2023-04-20T09:47:40.927Z,27.00
2023-04-20T09:48:40.875Z,27.12
2023-04-20T09:49:40.970Z,27.24
2023-04-20T09:50:48.388Z,27.23
2023-04-20T09:51:41.944Z,27.27
2023-04-20T09:52:40.953Z,27.41
2023-04-20T09:53:40.928Z,27.45
2023-04-20T09:54:40.938Z,27.53
2023-04-20T09:55:40.899Z,27.55
2023-04-20T09:56:40.890Z,27.67
2023-04-20T09:57:40.889Z,27.67
2023-04-20T09:58:40.916Z,27.84
2023-04-20T09:59:40.974Z,27.91
2023-04-20T10:00:40.999Z,27.98
2023-04-20T10:01:41.245Z,28.06
2023-04-20T10:02:41.236Z,28.07
2023-04-20T10:03:41.290Z,28.15
2023-04-20T10:04:41.359Z,28.17
2023-04-20T10:05:41.922Z,28.24
2023-04-20T10:06:41.370Z,28.26
2023-04-20T10:07:41.456Z,28.23
2023-04-20T10:08:41.502Z,28.20
2023-04-20T10:09:41.586Z,28.20
2023-04-20T10:10:41.590Z,28.20
2023-04-20T10:11:52.582Z,28.17
2023-04-20T10:12:42.674Z,28.25
2023-04-20T10:13:41.648Z,28.25
2023-04-20T10:14:41.703Z,28.32
2023-04-20T10:15:41.626Z,28.28
2023-04-20T10:16:41.644Z,28.35
2023-04-20T10:17:41.808Z,28.32
2023-04-20T10:18:41.766Z,28.43
2023-04-20T10:19:41.596Z,28.33
2023-04-20T10:20:41.617Z,28.15
2023-04-20T10:21:41.690Z,28.02
2023-04-20T10:22:41.721Z,27.93
2023-04-20T10:23:41.778Z,27.70
2023-04-20T10:24:41.957Z,26.57
2023-04-20T10:25:41.889Z,26.06
2023-04-20T10:26:41.920Z,25.87
2023-04-20T10:27:41.984Z,25.33
2023-04-20T10:28:42.141Z,24.85
2023-04-20T10:29:42.106Z,24.64
2023-04-20T10:30:42.125Z,23.83
2023-04-20T10:31:42.196Z,23.61
2023-04-20T10:32:42.201Z,23.39
2023-04-20T10:33:42.128Z,23.51
2023-04-20T10:34:42.150Z,23.50
2023-04-20T10:35:43.865Z,23.41
2023-04-20T10:36:42.144Z,23.43
2023-04-20T10:37:42.128Z,23.41
2023-04-20T10:38:42.122Z,23.36
2023-04-20T10:39:42.139Z,23.37
2023-04-20T10:40:42.140Z,23.32
2023-04-20T10:41:42.116Z,23.48
2023-04-20T10:42:42.118Z,23.32
2023-04-20T10:43:42.179Z,23.36
2023-04-20T10:44:42.481Z,23.28
2023-04-20T10:45:42.104Z,23.14
2023-04-20T10:46:42.167Z,23.09
2023-04-20T10:47:42.121Z,23.06
2023-04-20T10:48:42.136Z,22.95
2023-04-20T10:49:42.097Z,23.00
2023-04-20T10:50:42.047Z,23.08
2023-04-20T10:51:42.059Z,23.04
2023-04-20T10:52:42.087Z,23.08
2023-04-20T10:53:42.056Z,23.11
2023-04-20T10:54:42.078Z,23.19
2023-04-20T10:55:42.022Z,23.18
2023-04-20T10:56:42.110Z,23.15
2023-04-20T10:57:42.029Z,23.21
2023-04-20T10:58:41.995Z,23.33
2023-04-20T10:59:42.056Z,23.30
2023-04-20T11:00:42.024Z,23.23
2023-04-20T11:01:42.128Z,23.20
2023-04-20T11:02:42.114Z,23.20
2023-04-20T11:03:42.088Z,23.15
2023-04-20T11:04:42.024Z,23.16
2023-04-20T11:05:41.992Z,23.23
2023-04-20T11:06:41.989Z,23.19
2023-04-20T11:07:41.978Z,23.21
2023-04-20T11:08:42.086Z,23.29
2023-04-20T11:09:41.984Z,23.27
2023-04-20T11:10:41.937Z,23.40
2023-04-20T11:11:41.931Z,23.38
2023-04-20T11:12:41.915Z,23.43
2023-04-20T11:13:41.916Z,23.49
2023-04-20T11:14:42.031Z,23.57
2023-04-20T11:15:41.892Z,23.61
2023-04-20T11:16:50.830Z,23.64
2023-04-20T11:17:42.920Z,23.64
2023-04-20T11:18:41.975Z,23.71
2023-04-20T11:19:42.043Z,23.73
2023-04-20T11:20:41.871Z,23.85
2023-04-20T11:21:41.862Z,23.85
2023-04-20T11:22:41.880Z,24.01
2023-04-20T11:23:41.834Z,24.04
2023-04-20T11:24:41.847Z,24.22
2023-04-20T11:25:41.837Z,24.44
2023-04-20T11:26:41.829Z,24.48
2023-04-20T11:27:41.859Z,24.51
2023-04-20T11:28:41.871Z,25.62
2023-04-20T11:29:41.888Z,27.66
2023-04-20T11:30:41.940Z,27.75
2023-04-20T11:31:42.034Z,27.56
2023-04-20T11:32:42.196Z,28.16
2023-04-20T11:33:42.050Z,29.70
2023-04-20T11:34:43.381Z,29.33
2023-04-20T11:35:42.079Z,28.85
2023-04-20T11:36:42.103Z,29.47
2023-04-20T11:37:42.089Z,29.19
2023-04-20T11:38:42.105Z,29.30
2023-04-20T11:39:42.123Z,29.39
2023-04-20T11:40:42.175Z,29.17
2023-04-20T11:41:42.308Z,29.09
2023-04-20T11:42:42.379Z,29.06
2023-04-20T11:43:42.441Z,28.88
2023-04-20T11:44:42.514Z,28.74
2023-04-20T11:45:42.478Z,28.49
2023-04-20T11:46:42.482Z,28.18
2023-04-20T11:47:42.567Z,27.92
2023-04-20T11:48:42.612Z,27.70
2023-04-20T11:49:42.608Z,27.50
2023-04-20T11:50:42.787Z,27.33
2023-04-20T11:51:42.752Z,27.18
2023-04-20T11:52:42.843Z,27.06
2023-04-20T11:53:42.895Z,27.02
2023-04-20T11:54:42.970Z,26.87
2023-04-20T11:55:42.977Z,26.79
2023-04-20T11:56:43.042Z,26.67
2023-04-20T11:57:43.069Z,26.59
2023-04-20T11:58:43.137Z,26.52
2023-04-20T11:59:43.515Z,26.35
2023-04-20T12:00:43.253Z,26.33
2023-04-20T12:01:43.296Z,26.19
2023-04-20T12:02:43.637Z,26.09
2023-04-20T12:03:46.229Z,26.03
2023-04-20T12:04:43.626Z,25.92
2023-04-20T12:05:43.487Z,25.92
2023-04-20T12:06:43.395Z,25.89
2023-04-20T12:07:43.391Z,25.79
2023-04-20T12:08:43.392Z,25.74
2023-04-20T12:09:43.396Z,25.70
2023-04-20T12:10:43.393Z,25.69
2023-04-20T12:11:43.361Z,25.61
2023-04-20T12:12:43.393Z,25.60
2023-04-20T12:13:43.357Z,25.58
2023-04-20T12:14:43.372Z,25.56
2023-04-20T12:15:43.381Z,25.49
2023-04-20T12:16:43.344Z,25.51
2023-04-20T12:17:43.375Z,25.47
2023-04-20T12:18:43.315Z,25.44
2023-04-20T12:19:43.327Z,25.40
2023-04-20T12:20:43.317Z,25.40
2023-04-20T12:21:43.321Z,25.40
2023-04-20T12:22:43.299Z,25.34
2023-04-20T12:23:43.301Z,25.35
2023-04-20T12:24:43.295Z,25.29
2023-04-20T12:25:43.295Z,25.22
2023-04-20T12:26:43.291Z,25.19
2023-04-20T12:27:43.297Z,25.24
2023-04-20T12:28:43.349Z,25.13
2023-04-20T12:29:43.399Z,25.18
2023-04-20T12:30:43.447Z,25.11
2023-04-20T12:31:43.530Z,25.08
2023-04-20T12:32:43.536Z,25.05
2023-04-20T12:33:43.554Z,24.98
2023-04-20T12:34:43.616Z,25.00
2023-04-20T12:35:43.624Z,24.97
2023-04-20T12:36:43.654Z,25.04
2023-04-20T12:37:43.708Z,24.94
2023-04-20T12:38:43.730Z,24.88
2023-04-20T12:39:43.779Z,24.87
2023-04-20T12:40:43.833Z,24.86
2023-04-20T12:41:43.857Z,24.90
2023-04-20T12:42:43.869Z,24.88
2023-04-20T12:43:43.909Z,24.92
2023-04-20T12:44:43.942Z,24.84
2023-04-20T12:45:43.982Z,24.80
2023-04-20T12:46:44.027Z,24.82
2023-04-20T12:47:44.053Z,24.87
2023-04-20T12:48:44.057Z,24.82
2023-04-20T12:49:44.106Z,24.73
2023-04-20T12:50:44.131Z,24.77
2023-04-20T12:51:44.159Z,24.93
2023-04-20T12:52:44.183Z,24.79
2023-04-20T12:53:44.237Z,24.83